sensor_id;sensor_type;location;lat;lon;timestamp;P1;durP1;ratioP1;P2;durP2;ratioP2
74465;SDS011;62916;50.044;15.938;2023-04-28T00:02:17;2.60;;;2.10;;
74465;SDS011;62916;50.044;15.938;2023-04-28T00:04:50;2.70;;;2.30;;
74465;SDS011;62916;50.044;15.938;2023-04-28T00:07:21;3.60;;;2.30;;
74465;SDS011;62916;50.044;15.938;2023-04-28T00:09:53;2.60;;;2.40;;
74465;SDS011;62916;50.044;15.938;2023-04-28T00:12:24;2.50;;;2.20;;
74465;SDS011;62916;50.044;15.938;2023-04-28T00:14:55;2.50;;;2.30;;
74465;SDS011;62916;50.044;15.938;2023-04-28T00:17:26;2.80;;;2.40;;
74465;SDS011;62916;50.044;15.938;2023-04-28T00:19:56;2.70;;;2.50;;
74465;SDS011;62916;50.044;15.938;2023-04-28T00:22:27;2.80;;;2.50;;
74465;SDS011;62916;50.044;15.938;2023-04-28T00:24:58;3.10;;;2.80;;
74465;SDS011;62916;50.044;15.938;2023-04-28T00:27:29;3.80;;;2.60;;
74465;SDS011;62916;50.044;15.938;2023-04-28T00:30:02;3.20;;;2.30;;
74465;SDS011;62916;50.044;15.938;2023-04-28T00:32:34;4.40;;;2.60;;
74465;SDS011;62916;50.044;15.938;2023-04-28T00:35:05;3.00;;;2.70;;
74465;SDS011;62916;50.044;15.938;2023-04-28T00:37:37;3.20;;;2.50;;
74465;SDS011;62916;50.044;15.938;2023-04-28T00:40:09;3.00;;;2.40;;
74465;SDS011;62916;50.044;15.938;2023-04-28T00:42:40;2.50;;;2.30;;
74465;SDS011;62916;50.044;15.938;2023-04-28T00:45:11;2.40;;;2.20;;
74465;SDS011;62916;50.044;15.938;2023-04-28T00:47:42;3.80;;;2.60;;
74465;SDS011;62916;50.044;15.938;2023-04-28T00:50:13;2.80;;;2.40;;
74465;SDS011;62916;50.044;15.938;2023-04-28T00:52:46;2.90;;;2.30;;
74465;SDS011;62916;50.044;15.938;2023-04-28T00:55:17;3.10;;;2.70;;
74465;SDS011;62916;50.044;15.938;2023-04-28T00:57:48;3.20;;;2.90;;
74465;SDS011;62916;50.044;15.938;2023-04-28T01:00:23;4.30;;;2.90;;
74465;SDS011;62916;50.044;15.938;2023-04-28T01:02:54;2.60;;;2.20;;
74465;SDS011;62916;50.044;15.938;2023-04-28T01:05:25;2.70;;;2.40;;
74465;SDS011;62916;50.044;15.938;2023-04-28T01:07:57;2.80;;;2.30;;
74465;SDS011;62916;50.044;15.938;2023-04-28T01:10:28;3.20;;;2.50;;
74465;SDS011;62916;50.044;15.938;2023-04-28T01:12:59;2.80;;;2.40;;
74465;SDS011;62916;50.044;15.938;2023-04-28T01:15:30;2.90;;;2.20;;
74465;SDS011;62916;50.044;15.938;2023-04-28T01:18:01;2.90;;;2.40;;
74465;SDS011;62916;50.044;15.938;2023-04-28T01:20:32;2.50;;;2.30;;
74465;SDS011;62916;50.044;15.938;2023-04-28T01:23:03;3.00;;;2.80;;
74465;SDS011;62916;50.044;15.938;2023-04-28T01:25:34;3.10;;;2.50;;
74465;SDS011;62916;50.044;15.938;2023-04-28T01:28:04;2.60;;;2.40;;
74465;SDS011;62916;50.044;15.938;2023-04-28T01:30:35;2.60;;;2.30;;
74465;SDS011;62916;50.044;15.938;2023-04-28T01:33:06;3.10;;;2.30;;
74465;SDS011;62916;50.044;15.938;2023-04-28T01:35:37;4.60;;;2.60;;
74465;SDS011;62916;50.044;15.938;2023-04-28T01:38:08;2.70;;;2.40;;
74465;SDS011;62916;50.044;15.938;2023-04-28T01:40:38;2.40;;;2.20;;
74465;SDS011;62916;50.044;15.938;2023-04-28T01:43:09;2.40;;;2.20;;
74465;SDS011;62916;50.044;15.938;2023-04-28T01:45:40;2.60;;;2.40;;
74465;SDS011;62916;50.044;15.938;2023-04-28T01:48:11;2.50;;;2.30;;
74465;SDS011;62916;50.044;15.938;2023-04-28T01:50:41;3.00;;;2.60;;
74465;SDS011;62916;50.044;15.938;2023-04-28T01:53:12;2.90;;;2.70;;
74465;SDS011;62916;50.044;15.938;2023-04-28T01:55:47;3.50;;;2.80;;
74465;SDS011;62916;50.044;15.938;2023-04-28T01:58:18;3.20;;;2.90;;
74465;SDS011;62916;50.044;15.938;2023-04-28T02:00:49;3.20;;;2.90;;
74465;SDS011;62916;50.044;15.938;2023-04-28T02:03:19;2.50;;;2.30;;
74465;SDS011;62916;50.044;15.938;2023-04-28T02:05:50;2.60;;;2.40;;
74465;SDS011;62916;50.044;15.938;2023-04-28T02:08:21;2.70;;;2.40;;
74465;SDS011;62916;50.044;15.938;2023-04-28T02:10:52;2.80;;;2.30;;
74465;SDS011;62916;50.044;15.938;2023-04-28T02:13:24;2.70;;;2.20;;
74465;SDS011;62916;50.044;15.938;2023-04-28T02:15:54;3.60;;;2.60;;
74465;SDS011;62916;50.044;15.938;2023-04-28T02:18:28;3.30;;;2.50;;
74465;SDS011;62916;50.044;15.938;2023-04-28T02:21:06;3.00;;;2.50;;
74465;SDS011;62916;50.044;15.938;2023-04-28T02:23:38;3.10;;;2.90;;
74465;SDS011;62916;50.044;15.938;2023-04-28T02:26:09;2.60;;;2.40;;
74465;SDS011;62916;50.044;15.938;2023-04-28T02:28:40;2.80;;;2.40;;
74465;SDS011;62916;50.044;15.938;2023-04-28T02:31:11;3.20;;;2.60;;
74465;SDS011;62916;50.044;15.938;2023-04-28T02:33:42;3.30;;;2.20;;
74465;SDS011;62916;50.044;15.938;2023-04-28T02:36:12;2.60;;;2.20;;
74465;SDS011;62916;50.044;15.938;2023-04-28T02:38:43;3.40;;;2.60;;
74465;SDS011;62916;50.044;15.938;2023-04-28T02:41:14;2.50;;;2.30;;
74465;SDS011;62916;50.044;15.938;2023-04-28T02:43:44;2.60;;;2.40;;
74465;SDS011;62916;50.044;15.938;2023-04-28T02:46:15;3.00;;;2.80;;
74465;SDS011;62916;50.044;15.938;2023-04-28T02:48:46;3.10;;;2.60;;
74465;SDS011;62916;50.044;15.938;2023-04-28T02:51:17;2.50;;;2.30;;
74465;SDS011;62916;50.044;15.938;2023-04-28T02:53:48;3.20;;;2.80;;
74465;SDS011;62916;50.044;15.938;2023-04-28T02:56:18;2.50;;;2.30;;
74465;SDS011;62916;50.044;15.938;2023-04-28T02:58:49;2.50;;;2.30;;
74465;SDS011;62916;50.044;15.938;2023-04-28T03:01:20;2.60;;;2.40;;
74465;SDS011;62916;50.044;15.938;2023-04-28T03:03:50;2.80;;;2.30;;
74465;SDS011;62916;50.044;15.938;2023-04-28T03:06:22;2.80;;;2.40;;
74465;SDS011;62916;50.044;15.938;2023-04-28T03:08:53;2.90;;;2.30;;
74465;SDS011;62916;50.044;15.938;2023-04-28T03:11:24;3.20;;;2.90;;
74465;SDS011;62916;50.044;15.938;2023-04-28T03:13:55;3.20;;;2.40;;
74465;SDS011;62916;50.044;15.938;2023-04-28T03:16:25;3.00;;;2.60;;
74465;SDS011;62916;50.044;15.938;2023-04-28T03:18:56;2.50;;;2.30;;
74465;SDS011;62916;50.044;15.938;2023-04-28T03:21:27;2.60;;;2.40;;
74465;SDS011;62916;50.044;15.938;2023-04-28T03:23:59;3.00;;;2.60;;
74465;SDS011;62916;50.044;15.938;2023-04-28T03:26:32;3.20;;;2.70;;
74465;SDS011;62916;50.044;15.938;2023-04-28T03:29:03;3.60;;;2.50;;
74465;SDS011;62916;50.044;15.938;2023-04-28T03:31:34;3.00;;;2.70;;
74465;SDS011;62916;50.044;15.938;2023-04-28T03:34:05;4.40;;;2.50;;
74465;SDS011;62916;50.044;15.938;2023-04-28T03:36:36;8.00;;;2.30;;
74465;SDS011;62916;50.044;15.938;2023-04-28T03:39:07;3.10;;;2.80;;
74465;SDS011;62916;50.044;15.938;2023-04-28T03:41:37;3.00;;;2.70;;
74465;SDS011;62916;50.044;15.938;2023-04-28T03:44:08;3.20;;;2.90;;
74465;SDS011;62916;50.044;15.938;2023-04-28T03:46:39;2.90;;;2.60;;
74465;SDS011;62916;50.044;15.938;2023-04-28T03:49:09;3.20;;;2.60;;
74465;SDS011;62916;50.044;15.938;2023-04-28T03:51:40;3.50;;;2.60;;
74465;SDS011;62916;50.044;15.938;2023-04-28T03:54:11;2.30;;;2.10;;
74465;SDS011;62916;50.044;15.938;2023-04-28T03:56:42;3.40;;;2.70;;
74465;SDS011;62916;50.044;15.938;2023-04-28T03:59:13;3.60;;;3.30;;
74465;SDS011;62916;50.044;15.938;2023-04-28T04:01:45;3.90;;;3.40;;
74465;SDS011;62916;50.044;15.938;2023-04-28T04:04:16;2.90;;;2.60;;
74465;SDS011;62916;50.044;15.938;2023-04-28T04:06:47;3.20;;;2.40;;
74465;SDS011;62916;50.044;15.938;2023-04-28T04:09:19;2.50;;;2.30;;
74465;SDS011;62916;50.044;15.938;2023-04-28T04:11:50;3.10;;;2.70;;
74465;SDS011;62916;50.044;15.938;2023-04-28T04:14:21;2.70;;;2.30;;
74465;SDS011;62916;50.044;15.938;2023-04-28T04:16:52;3.40;;;3.00;;
74465;SDS011;62916;50.044;15.938;2023-04-28T04:19:23;2.60;;;2.40;;
74465;SDS011;62916;50.044;15.938;2023-04-28T04:21:54;2.60;;;2.00;;
74465;SDS011;62916;50.044;15.938;2023-04-28T04:24:25;3.00;;;2.60;;
74465;SDS011;62916;50.044;15.938;2023-04-28T04:26:56;3.00;;;2.60;;
74465;SDS011;62916;50.044;15.938;2023-04-28T04:29:27;4.00;;;2.40;;
74465;SDS011;62916;50.044;15.938;2023-04-28T04:31:58;3.80;;;2.70;;
74465;SDS011;62916;50.044;15.938;2023-04-28T04:34:29;3.30;;;2.90;;
74465;SDS011;62916;50.044;15.938;2023-04-28T04:37:00;3.10;;;2.80;;
74465;SDS011;62916;50.044;15.938;2023-04-28T04:39:30;3.30;;;2.80;;
74465;SDS011;62916;50.044;15.938;2023-04-28T04:42:02;2.40;;;2.20;;
74465;SDS011;62916;50.044;15.938;2023-04-28T04:44:51;3.20;;;2.90;;
74465;SDS011;62916;50.044;15.938;2023-04-28T04:47:22;3.30;;;2.40;;
74465;SDS011;62916;50.044;15.938;2023-04-28T04:49:53;3.20;;;2.30;;
74465;SDS011;62916;50.044;15.938;2023-04-28T04:52:24;2.80;;;2.30;;
74465;SDS011;62916;50.044;15.938;2023-04-28T04:54:55;3.10;;;2.30;;
74465;SDS011;62916;50.044;15.938;2023-04-28T04:57:26;4.00;;;2.60;;
74465;SDS011;62916;50.044;15.938;2023-04-28T04:59:57;3.90;;;2.60;;
74465;SDS011;62916;50.044;15.938;2023-04-28T05:02:28;2.80;;;2.30;;
74465;SDS011;62916;50.044;15.938;2023-04-28T05:04:59;4.60;;;2.60;;
74465;SDS011;62916;50.044;15.938;2023-04-28T05:07:47;2.80;;;2.10;;
74465;SDS011;62916;50.044;15.938;2023-04-28T05:10:18;2.40;;;2.20;;
74465;SDS011;62916;50.044;15.938;2023-04-28T05:12:49;2.90;;;2.60;;
74465;SDS011;62916;50.044;15.938;2023-04-28T05:15:21;3.50;;;2.50;;
74465;SDS011;62916;50.044;15.938;2023-04-28T05:17:51;2.60;;;2.40;;
74465;SDS011;62916;50.044;15.938;2023-04-28T05:20:22;2.40;;;2.20;;
74465;SDS011;62916;50.044;15.938;2023-04-28T05:22:53;2.50;;;2.30;;
74465;SDS011;62916;50.044;15.938;2023-04-28T05:25:24;4.40;;;2.80;;
74465;SDS011;62916;50.044;15.938;2023-04-28T05:27:55;2.60;;;2.40;;
74465;SDS011;62916;50.044;15.938;2023-04-28T05:30:26;2.10;;;1.80;;
74465;SDS011;62916;50.044;15.938;2023-04-28T05:32:57;2.80;;;2.30;;
74465;SDS011;62916;50.044;15.938;2023-04-28T05:35:27;3.50;;;2.20;;
74465;SDS011;62916;50.044;15.938;2023-04-28T05:37:59;3.10;;;2.50;;
74465;SDS011;62916;50.044;15.938;2023-04-28T05:40:30;2.40;;;2.20;;
74465;SDS011;62916;50.044;15.938;2023-04-28T05:43:01;2.50;;;2.30;;
74465;SDS011;62916;50.044;15.938;2023-04-28T05:45:32;3.00;;;2.40;;
74465;SDS011;62916;50.044;15.938;2023-04-28T05:48:04;3.10;;;2.50;;
74465;SDS011;62916;50.044;15.938;2023-04-28T05:50:35;2.70;;;2.40;;
74465;SDS011;62916;50.044;15.938;2023-04-28T05:53:06;3.60;;;2.30;;
74465;SDS011;62916;50.044;15.938;2023-04-28T05:55:37;2.80;;;2.50;;
74465;SDS011;62916;50.044;15.938;2023-04-28T05:58:08;2.30;;;2.10;;
74465;SDS011;62916;50.044;15.938;2023-04-28T06:00:38;3.20;;;2.90;;
74465;SDS011;62916;50.044;15.938;2023-04-28T06:03:09;2.60;;;2.40;;
74465;SDS011;62916;50.044;15.938;2023-04-28T06:05:42;2.90;;;2.40;;
74465;SDS011;62916;50.044;15.938;2023-04-28T06:08:13;3.80;;;2.30;;
74465;SDS011;62916;50.044;15.938;2023-04-28T06:10:44;2.40;;;2.10;;
74465;SDS011;62916;50.044;15.938;2023-04-28T06:13:15;4.80;;;2.50;;
74465;SDS011;62916;50.044;15.938;2023-04-28T06:15:46;8.10;;;2.90;;
74465;SDS011;62916;50.044;15.938;2023-04-28T06:18:16;4.20;;;2.30;;
74465;SDS011;62916;50.044;15.938;2023-04-28T06:20:48;3.50;;;2.00;;
74465;SDS011;62916;50.044;15.938;2023-04-28T06:23:18;4.00;;;2.50;;
74465;SDS011;62916;50.044;15.938;2023-04-28T06:25:49;4.80;;;2.30;;
74465;SDS011;62916;50.044;15.938;2023-04-28T06:28:20;3.50;;;2.20;;
74465;SDS011;62916;50.044;15.938;2023-04-28T06:30:51;2.10;;;1.90;;
74465;SDS011;62916;50.044;15.938;2023-04-28T06:33:23;3.80;;;3.10;;
74465;SDS011;62916;50.044;15.938;2023-04-28T06:35:53;3.80;;;2.30;;
74465;SDS011;62916;50.044;15.938;2023-04-28T06:38:27;2.80;;;2.30;;
74465;SDS011;62916;50.044;15.938;2023-04-28T06:40:58;3.90;;;2.30;;
74465;SDS011;62916;50.044;15.938;2023-04-28T06:43:29;2.70;;;2.50;;
74465;SDS011;62916;50.044;15.938;2023-04-28T06:46:00;3.80;;;2.00;;
74465;SDS011;62916;50.044;15.938;2023-04-28T06:48:32;2.50;;;2.10;;
74465;SDS011;62916;50.044;15.938;2023-04-28T06:51:03;5.00;;;2.40;;
74465;SDS011;62916;50.044;15.938;2023-04-28T06:53:35;3.20;;;2.10;;
74465;SDS011;62916;50.044;15.938;2023-04-28T06:56:06;3.80;;;2.60;;
74465;SDS011;62916;50.044;15.938;2023-04-28T06:58:38;3.10;;;2.30;;
74465;SDS011;62916;50.044;15.938;2023-04-28T07:01:09;2.50;;;2.30;;
74465;SDS011;62916;50.044;15.938;2023-04-28T07:03:40;2.40;;;2.00;;
74465;SDS011;62916;50.044;15.938;2023-04-28T07:06:11;2.20;;;2.00;;
74465;SDS011;62916;50.044;15.938;2023-04-28T07:08:43;3.80;;;2.80;;
74465;SDS011;62916;50.044;15.938;2023-04-28T07:11:14;2.50;;;2.30;;
74465;SDS011;62916;50.044;15.938;2023-04-28T07:13:45;14.20;;;3.30;;
74465;SDS011;62916;50.044;15.938;2023-04-28T07:16:18;29.20;;;5.80;;
74465;SDS011;62916;50.044;15.938;2023-04-28T07:18:49;21.50;;;5.50;;
74465;SDS011;62916;50.044;15.938;2023-04-28T07:21:20;27.10;;;5.50;;
74465;SDS011;62916;50.044;15.938;2023-04-28T07:23:51;23.10;;;5.60;;
74465;SDS011;62916;50.044;15.938;2023-04-28T07:26:23;31.50;;;5.10;;
74465;SDS011;62916;50.044;15.938;2023-04-28T07:28:54;21.40;;;5.20;;
74465;SDS011;62916;50.044;15.938;2023-04-28T07:31:25;28.00;;;5.50;;
74465;SDS011;62916;50.044;15.938;2023-04-28T07:33:56;19.90;;;5.00;;
74465;SDS011;62916;50.044;15.938;2023-04-28T07:36:27;19.40;;;4.70;;
74465;SDS011;62916;50.044;15.938;2023-04-28T07:39:00;24.50;;;4.60;;
74465;SDS011;62916;50.044;15.938;2023-04-28T07:41:32;19.00;;;4.80;;
74465;SDS011;62916;50.044;15.938;2023-04-28T07:44:06;19.00;;;5.70;;
74465;SDS011;62916;50.044;15.938;2023-04-28T07:46:37;21.00;;;5.20;;
74465;SDS011;62916;50.044;15.938;2023-04-28T07:49:08;17.00;;;4.70;;
74465;SDS011;62916;50.044;15.938;2023-04-28T07:51:39;19.20;;;4.60;;
74465;SDS011;62916;50.044;15.938;2023-04-28T07:54:10;21.90;;;5.10;;
74465;SDS011;62916;50.044;15.938;2023-04-28T07:56:42;13.90;;;3.90;;
74465;SDS011;62916;50.044;15.938;2023-04-28T07:59:13;17.10;;;4.40;;
74465;SDS011;62916;50.044;15.938;2023-04-28T08:01:44;16.10;;;4.90;;
74465;SDS011;62916;50.044;15.938;2023-04-28T08:04:15;16.70;;;4.30;;
74465;SDS011;62916;50.044;15.938;2023-04-28T08:06:47;16.20;;;4.20;;
74465;SDS011;62916;50.044;15.938;2023-04-28T08:09:18;16.40;;;4.10;;
74465;SDS011;62916;50.044;15.938;2023-04-28T08:11:49;15.40;;;3.50;;
74465;SDS011;62916;50.044;15.938;2023-04-28T08:14:21;13.00;;;3.30;;
74465;SDS011;62916;50.044;15.938;2023-04-28T08:16:53;19.00;;;3.90;;
74465;SDS011;62916;50.044;15.938;2023-04-28T08:19:24;16.30;;;4.20;;
74465;SDS011;62916;50.044;15.938;2023-04-28T08:21:55;13.30;;;3.70;;
74465;SDS011;62916;50.044;15.938;2023-04-28T08:24:26;11.20;;;3.80;;
74465;SDS011;62916;50.044;15.938;2023-04-28T08:27:01;11.90;;;3.70;;
74465;SDS011;62916;50.044;15.938;2023-04-28T08:29:32;10.00;;;3.20;;
74465;SDS011;62916;50.044;15.938;2023-04-28T08:32:03;13.90;;;4.10;;
74465;SDS011;62916;50.044;15.938;2023-04-28T08:34:34;13.90;;;3.20;;
74465;SDS011;62916;50.044;15.938;2023-04-28T08:37:05;16.70;;;4.00;;
74465;SDS011;62916;50.044;15.938;2023-04-28T08:39:36;13.10;;;3.90;;
74465;SDS011;62916;50.044;15.938;2023-04-28T08:42:07;13.70;;;4.40;;
74465;SDS011;62916;50.044;15.938;2023-04-28T08:44:38;8.60;;;3.40;;
74465;SDS011;62916;50.044;15.938;2023-04-28T08:47:10;12.20;;;3.90;;
74465;SDS011;62916;50.044;15.938;2023-04-28T08:49:42;8.80;;;3.30;;
74465;SDS011;62916;50.044;15.938;2023-04-28T08:52:15;7.80;;;2.90;;
74465;SDS011;62916;50.044;15.938;2023-04-28T08:54:47;8.60;;;3.20;;
74465;SDS011;62916;50.044;15.938;2023-04-28T08:57:19;9.40;;;3.40;;
74465;SDS011;62916;50.044;15.938;2023-04-28T08:59:51;13.00;;;3.50;;
74465;SDS011;62916;50.044;15.938;2023-04-28T09:02:22;7.40;;;2.80;;
74465;SDS011;62916;50.044;15.938;2023-04-28T09:04:53;10.90;;;3.10;;
74465;SDS011;62916;50.044;15.938;2023-04-28T09:07:25;10.70;;;3.00;;
74465;SDS011;62916;50.044;15.938;2023-04-28T09:12:50;4.50;;;2.70;;
74465;SDS011;62916;50.044;15.938;2023-04-28T09:15:26;8.90;;;2.90;;
74465;SDS011;62916;50.044;15.938;2023-04-28T09:18:00;9.60;;;3.00;;
74465;SDS011;62916;50.044;15.938;2023-04-28T09:20:33;7.20;;;3.20;;
74465;SDS011;62916;50.044;15.938;2023-04-28T09:23:15;5.00;;;2.60;;
74465;SDS011;62916;50.044;15.938;2023-04-28T09:25:59;9.50;;;2.70;;
74465;SDS011;62916;50.044;15.938;2023-04-28T09:28:32;5.50;;;2.30;;
74465;SDS011;62916;50.044;15.938;2023-04-28T09:31:03;6.30;;;2.60;;
74465;SDS011;62916;50.044;15.938;2023-04-28T09:33:34;7.80;;;2.70;;
74465;SDS011;62916;50.044;15.938;2023-04-28T09:36:06;6.60;;;2.50;;
74465;SDS011;62916;50.044;15.938;2023-04-28T09:38:43;7.30;;;2.80;;
74465;SDS011;62916;50.044;15.938;2023-04-28T09:41:14;6.30;;;3.10;;
74465;SDS011;62916;50.044;15.938;2023-04-28T09:43:45;5.40;;;2.30;;
74465;SDS011;62916;50.044;15.938;2023-04-28T09:46:16;7.90;;;2.60;;
74465;SDS011;62916;50.044;15.938;2023-04-28T09:49:00;5.60;;;2.30;;
74465;SDS011;62916;50.044;15.938;2023-04-28T09:51:31;4.90;;;2.10;;
74465;SDS011;62916;50.044;15.938;2023-04-28T09:54:02;4.80;;;2.40;;
74465;SDS011;62916;50.044;15.938;2023-04-28T09:56:34;5.00;;;2.50;;
74465;SDS011;62916;50.044;15.938;2023-04-28T09:59:07;5.60;;;2.70;;
74465;SDS011;62916;50.044;15.938;2023-04-28T10:01:39;4.60;;;2.10;;
74465;SDS011;62916;50.044;15.938;2023-04-28T10:04:11;3.60;;;1.80;;
74465;SDS011;62916;50.044;15.938;2023-04-28T10:06:43;4.40;;;2.10;;
74465;SDS011;62916;50.044;15.938;2023-04-28T10:09:14;4.00;;;2.20;;
74465;SDS011;62916;50.044;15.938;2023-04-28T10:11:53;4.50;;;2.30;;
74465;SDS011;62916;50.044;15.938;2023-04-28T10:14:24;7.00;;;2.20;;
74465;SDS011;62916;50.044;15.938;2023-04-28T10:16:55;2.80;;;1.90;;
74465;SDS011;62916;50.044;15.938;2023-04-28T10:19:27;2.70;;;1.80;;
74465;SDS011;62916;50.044;15.938;2023-04-28T10:22:00;5.00;;;2.10;;
74465;SDS011;62916;50.044;15.938;2023-04-28T10:24:57;3.00;;;1.60;;
74465;SDS011;62916;50.044;15.938;2023-04-28T10:27:39;9.10;;;2.30;;
74465;SDS011;62916;50.044;15.938;2023-04-28T10:30:12;4.00;;;2.30;;
74465;SDS011;62916;50.044;15.938;2023-04-28T10:35:54;4.30;;;2.80;;
74465;SDS011;62916;50.044;15.938;2023-04-28T10:38:25;4.40;;;2.10;;
74465;SDS011;62916;50.044;15.938;2023-04-28T10:40:55;5.40;;;2.10;;
74465;SDS011;62916;50.044;15.938;2023-04-28T10:43:36;6.80;;;2.50;;
74465;SDS011;62916;50.044;15.938;2023-04-28T10:46:09;5.10;;;2.40;;
74465;SDS011;62916;50.044;15.938;2023-04-28T10:48:52;4.40;;;2.40;;
74465;SDS011;62916;50.044;15.938;2023-04-28T10:51:29;4.20;;;2.50;;
74465;SDS011;62916;50.044;15.938;2023-04-28T10:54:08;5.40;;;2.50;;
74465;SDS011;62916;50.044;15.938;2023-04-28T10:59:48;3.50;;;2.10;;
74465;SDS011;62916;50.044;15.938;2023-04-28T11:02:41;5.00;;;2.40;;
74465;SDS011;62916;50.044;15.938;2023-04-28T11:05:14;10.80;;;2.70;;
74465;SDS011;62916;50.044;15.938;2023-04-28T11:11:17;7.40;;;2.40;;
74465;SDS011;62916;50.044;15.938;2023-04-28T11:13:48;8.70;;;2.80;;
74465;SDS011;62916;50.044;15.938;2023-04-28T11:16:21;7.30;;;2.20;;
74465;SDS011;62916;50.044;15.938;2023-04-28T11:18:54;4.80;;;2.20;;
74465;SDS011;62916;50.044;15.938;2023-04-28T11:21:30;6.10;;;2.50;;
74465;SDS011;62916;50.044;15.938;2023-04-28T11:24:06;7.20;;;2.30;;
74465;SDS011;62916;50.044;15.938;2023-04-28T11:26:39;6.70;;;2.20;;
74465;SDS011;62916;50.044;15.938;2023-04-28T11:29:12;4.50;;;2.50;;
74465;SDS011;62916;50.044;15.938;2023-04-28T11:31:49;5.00;;;2.30;;
74465;SDS011;62916;50.044;15.938;2023-04-28T11:34:20;3.90;;;2.00;;
74465;SDS011;62916;50.044;15.938;2023-04-28T11:36:52;5.00;;;2.20;;
74465;SDS011;62916;50.044;15.938;2023-04-28T11:39:28;6.10;;;2.40;;
74465;SDS011;62916;50.044;15.938;2023-04-28T11:42:00;5.90;;;2.00;;
74465;SDS011;62916;50.044;15.938;2023-04-28T11:44:38;3.70;;;2.20;;
74465;SDS011;62916;50.044;15.938;2023-04-28T11:47:09;4.00;;;2.10;;
74465;SDS011;62916;50.044;15.938;2023-04-28T11:49:44;4.20;;;2.10;;
74465;SDS011;62916;50.044;15.938;2023-04-28T11:52:16;4.20;;;2.60;;
74465;SDS011;62916;50.044;15.938;2023-04-28T11:54:51;3.70;;;2.00;;
74465;SDS011;62916;50.044;15.938;2023-04-28T11:57:24;4.50;;;2.30;;
74465;SDS011;62916;50.044;15.938;2023-04-28T12:02:46;4.50;;;2.00;;
74465;SDS011;62916;50.044;15.938;2023-04-28T12:05:19;4.80;;;2.20;;
74465;SDS011;62916;50.044;15.938;2023-04-28T12:07:50;8.60;;;3.20;;
74465;SDS011;62916;50.044;15.938;2023-04-28T12:10:21;4.20;;;1.90;;
74465;SDS011;62916;50.044;15.938;2023-04-28T12:12:52;5.70;;;2.30;;
74465;SDS011;62916;50.044;15.938;2023-04-28T12:15:23;3.30;;;2.40;;
74465;SDS011;62916;50.044;15.938;2023-04-28T12:18:09;4.00;;;2.20;;
74465;SDS011;62916;50.044;15.938;2023-04-28T12:20:43;3.40;;;2.00;;
74465;SDS011;62916;50.044;15.938;2023-04-28T12:23:14;10.70;;;2.60;;
74465;SDS011;62916;50.044;15.938;2023-04-28T12:25:56;5.10;;;2.40;;
74465;SDS011;62916;50.044;15.938;2023-04-28T12:28:36;4.50;;;2.30;;
74465;SDS011;62916;50.044;15.938;2023-04-28T12:31:07;2.90;;;2.50;;
74465;SDS011;62916;50.044;15.938;2023-04-28T12:33:38;5.80;;;2.30;;
74465;SDS011;62916;50.044;15.938;2023-04-28T12:36:09;5.10;;;2.50;;
74465;SDS011;62916;50.044;15.938;2023-04-28T12:38:47;4.30;;;2.10;;
74465;SDS011;62916;50.044;15.938;2023-04-28T12:41:19;4.50;;;2.50;;
74465;SDS011;62916;50.044;15.938;2023-04-28T12:43:51;3.10;;;1.90;;
74465;SDS011;62916;50.044;15.938;2023-04-28T12:46:22;4.90;;;2.10;;
74465;SDS011;62916;50.044;15.938;2023-04-28T12:48:53;3.50;;;2.10;;
74465;SDS011;62916;50.044;15.938;2023-04-28T12:51:24;2.90;;;1.90;;
74465;SDS011;62916;50.044;15.938;2023-04-28T12:53:56;3.60;;;2.60;;
74465;SDS011;62916;50.044;15.938;2023-04-28T12:56:27;3.70;;;2.50;;
74465;SDS011;62916;50.044;15.938;2023-04-28T12:58:58;2.80;;;2.20;;
74465;SDS011;62916;50.044;15.938;2023-04-28T13:01:30;3.40;;;2.90;;
74465;SDS011;62916;50.044;15.938;2023-04-28T13:04:01;3.30;;;2.40;;
74465;SDS011;62916;50.044;15.938;2023-04-28T13:06:33;5.00;;;2.70;;
74465;SDS011;62916;50.044;15.938;2023-04-28T13:09:04;4.30;;;2.40;;
74465;SDS011;62916;50.044;15.938;2023-04-28T13:11:35;3.50;;;2.60;;
74465;SDS011;62916;50.044;15.938;2023-04-28T13:14:06;3.80;;;2.40;;
74465;SDS011;62916;50.044;15.938;2023-04-28T13:16:37;3.60;;;2.40;;
74465;SDS011;62916;50.044;15.938;2023-04-28T13:19:07;6.00;;;2.50;;
74465;SDS011;62916;50.044;15.938;2023-04-28T13:21:41;3.40;;;2.20;;
74465;SDS011;62916;50.044;15.938;2023-04-28T13:24:14;3.20;;;2.40;;
74465;SDS011;62916;50.044;15.938;2023-04-28T13:26:45;3.70;;;2.40;;
74465;SDS011;62916;50.044;15.938;2023-04-28T13:29:16;3.70;;;2.30;;
74465;SDS011;62916;50.044;15.938;2023-04-28T13:31:47;2.50;;;2.10;;
74465;SDS011;62916;50.044;15.938;2023-04-28T13:34:18;5.30;;;2.60;;
74465;SDS011;62916;50.044;15.938;2023-04-28T13:36:50;2.70;;;2.10;;
74465;SDS011;62916;50.044;15.938;2023-04-28T13:39:22;5.40;;;2.60;;
74465;SDS011;62916;50.044;15.938;2023-04-28T13:41:53;2.80;;;2.40;;
74465;SDS011;62916;50.044;15.938;2023-04-28T13:44:24;5.00;;;2.40;;
74465;SDS011;62916;50.044;15.938;2023-04-28T13:46:55;5.10;;;2.70;;
74465;SDS011;62916;50.044;15.938;2023-04-28T13:49:27;3.80;;;2.40;;
74465;SDS011;62916;50.044;15.938;2023-04-28T13:51:58;2.90;;;2.40;;
74465;SDS011;62916;50.044;15.938;2023-04-28T13:54:30;4.90;;;2.20;;
74465;SDS011;62916;50.044;15.938;2023-04-28T13:57:03;4.50;;;2.40;;
74465;SDS011;62916;50.044;15.938;2023-04-28T13:59:34;2.90;;;2.10;;
74465;SDS011;62916;50.044;15.938;2023-04-28T14:02:05;5.20;;;2.60;;
74465;SDS011;62916;50.044;15.938;2023-04-28T14:04:38;5.50;;;2.30;;
74465;SDS011;62916;50.044;15.938;2023-04-28T14:07:15;5.70;;;2.10;;
74465;SDS011;62916;50.044;15.938;2023-04-28T14:09:46;3.70;;;2.30;;
74465;SDS011;62916;50.044;15.938;2023-04-28T14:12:19;4.10;;;2.40;;
74465;SDS011;62916;50.044;15.938;2023-04-28T14:14:49;6.90;;;2.10;;
74465;SDS011;62916;50.044;15.938;2023-04-28T14:17:20;13.80;;;4.00;;
74465;SDS011;62916;50.044;15.938;2023-04-28T14:19:51;22.10;;;4.30;;
74465;SDS011;62916;50.044;15.938;2023-04-28T14:22:22;23.20;;;3.80;;
74465;SDS011;62916;50.044;15.938;2023-04-28T14:24:53;22.80;;;5.40;;
74465;SDS011;62916;50.044;15.938;2023-04-28T14:27:24;19.40;;;3.90;;
74465;SDS011;62916;50.044;15.938;2023-04-28T14:29:56;17.10;;;3.70;;
74465;SDS011;62916;50.044;15.938;2023-04-28T14:32:27;19.30;;;4.00;;
74465;SDS011;62916;50.044;15.938;2023-04-28T14:34:58;17.40;;;3.20;;
74465;SDS011;62916;50.044;15.938;2023-04-28T14:37:31;12.90;;;3.10;;
74465;SDS011;62916;50.044;15.938;2023-04-28T14:40:03;9.40;;;3.10;;
74465;SDS011;62916;50.044;15.938;2023-04-28T14:42:36;12.30;;;3.80;;
74465;SDS011;62916;50.044;15.938;2023-04-28T14:45:08;13.40;;;2.90;;
74465;SDS011;62916;50.044;15.938;2023-04-28T14:47:40;11.90;;;3.30;;
74465;SDS011;62916;50.044;15.938;2023-04-28T14:50:11;13.40;;;3.60;;
74465;SDS011;62916;50.044;15.938;2023-04-28T14:52:44;12.80;;;3.90;;
74465;SDS011;62916;50.044;15.938;2023-04-28T14:55:15;8.10;;;3.00;;
74465;SDS011;62916;50.044;15.938;2023-04-28T14:57:46;7.30;;;2.80;;
74465;SDS011;62916;50.044;15.938;2023-04-28T15:00:18;13.90;;;2.90;;
74465;SDS011;62916;50.044;15.938;2023-04-28T15:02:49;8.60;;;2.60;;
74465;SDS011;62916;50.044;15.938;2023-04-28T15:05:20;10.30;;;3.00;;
74465;SDS011;62916;50.044;15.938;2023-04-28T15:07:52;6.40;;;2.70;;
74465;SDS011;62916;50.044;15.938;2023-04-28T15:10:25;12.00;;;3.50;;
74465;SDS011;62916;50.044;15.938;2023-04-28T15:13:01;8.00;;;2.50;;
74465;SDS011;62916;50.044;15.938;2023-04-28T15:15:31;11.00;;;3.10;;
74465;SDS011;62916;50.044;15.938;2023-04-28T15:18:03;9.40;;;2.80;;